Time;durP1;ratioP1;P1;durP2;ratioP2;P2;SDS_P1;SDS_P2;PMS_P1;PMS_P2;Temp;Humidity;BMP_temperature;BMP_pressure;BME280_temperature;BME280_humidity;BME280_pressure;Samples;Min_cycle;Max_cycle;Signal;HPM_P1;HPM_P2
2022/06/03 00:00:36;;;;;;;8.98;4.95;;;15.30;0.49;;;;;;2675333;76;20302;-90
2022/06/03 00:04:04;;;;;;;;;;;15.28;0.72;;;;;;2675398;76;22130;-90
2022/06/03 00:07:37;;;;;;;9.65;4.58;;;15.26;0.90;;;;;;2674695;76;21003;-90
2022/06/03 00:11:05;;;;;;;;;;;15.22;1.13;;;;;;2675356;76;22265;-90
2022/06/03 00:14:48;;;;;;;8.70;4.22;;;15.22;1.44;;;;;;2674937;76;20968;-90
2022/06/03 00:18:35;;;;;;;7.83;4.20;;;15.22;1.52;;;;;;2674764;76;22189;-90
2022/06/03 00:22:18;;;;;;;12.37;4.10;;;15.15;1.44;;;;;;2674679;76;22175;-90
2022/06/03 00:26:05;;;;;;;6.10;3.95;;;15.12;1.59;;;;;;2674871;76;22632;-90
2022/06/03 00:29:36;;;;;;;8.05;4.00;;;15.08;1.75;;;;;;2674650;76;22219;-90
2022/06/03 00:33:04;;;;;;;;;;;15.07;1.78;;;;;;2674814;76;22162;-90
2022/06/03 00:36:35;;;;;;;7.45;4.08;;;15.00;1.77;;;;;;2674135;76;20951;-90
2022/06/03 00:40:03;;;;;;;;;;;14.99;1.74;;;;;;2674582;76;22235;-90
2022/06/03 00:43:36;;;;;;;6.17;3.77;;;14.99;1.65;;;;;;2674595;76;20978;-90
2022/06/03 00:47:04;;;;;;;;;;;14.98;1.66;;;;;;2674905;76;22220;-90
2022/06/03 00:50:51;;;;;;;7.97;4.20;;;14.94;1.64;;;;;;2674294;76;21007;-90
2022/06/03 00:54:22;;;;;;;5.97;3.40;;;14.92;1.45;;;;;;2674597;76;22602;-90
2022/06/03 00:57:50;;;;;;;;;;;14.89;1.47;;;;;;2674638;76;22173;-89
2022/06/03 01:01:26;;;;;;;6.30;3.65;;;14.87;1.55;;;;;;2674250;76;20996;-89
2022/06/03 01:05:03;;;;;;;8.35;4.15;;;14.85;1.43;;;;;;2674724;76;22168;-90
2022/06/03 01:08:49;;;;;;;6.80;3.00;;;14.81;1.25;;;;;;2674910;76;22231;-89
2022/06/03 01:12:20;;;;;;;8.93;3.62;;;14.72;1.20;;;;;;2674618;76;22193;-88
2022/06/03 01:15:48;;;;;;;;;;;14.66;1.15;;;;;;2674870;76;22526;-89
2022/06/03 01:19:20;;;;;;;7.50;3.58;;;14.56;1.13;;;;;;2674479;76;21434;-90
2022/06/03 01:22:48;;;;;;;;;;;14.48;1.32;;;;;;2674668;76;22660;-90
2022/06/03 01:26:19;;;;;;;6.35;3.72;;;14.48;1.45;;;;;;2674102;76;21444;-90
2022/06/03 01:29:47;;;;;;;;;;;14.40;1.48;;;;;;2674690;76;22192;-90
2022/06/03 01:33:18;;;;;;;7.55;4.25;;;14.35;1.61;;;;;;2673995;76;21023;-90
2022/06/03 01:36:46;;;;;;;;;;;14.32;1.78;;;;;;2674718;76;22170;-90
2022/06/03 01:40:23;;;;;;;12.00;3.92;;;14.29;2.00;;;;;;2674249;76;20963;-90
2022/06/03 01:44:10;;;;;;;5.35;3.50;;;14.25;2.06;;;;;;2674380;76;22150;-90
2022/06/03 01:47:49;;;;;;;8.60;3.50;;;14.17;2.22;;;;;;2674413;76;22622;-90
2022/06/03 01:51:32;;;;;;;5.97;3.40;;;14.12;2.37;;;;;;2674798;76;22170;-91
2022/06/03 01:55:03;;;;;;;5.33;3.42;;;14.09;2.35;;;;;;2674211;76;22162;-91
2022/06/03 01:58:31;;;;;;;;;;;14.08;2.32;;;;;;2675153;76;22636;-90
2022/06/03 02:02:02;;;;;;;6.40;3.60;;;14.01;2.43;;;;;;2674077;76;21375;-91
2022/06/03 02:05:30;;;;;;;;;;;14.03;2.56;;;;;;2674433;76;22153;-91
2022/06/03 02:09:17;;;;;;;6.28;4.17;;;14.05;3.06;;;;;;2674127;76;20971;-89
2022/06/03 02:12:53;;;;;;;9.13;3.90;;;13.99;3.00;;;;;;2674450;76;22179;-90
2022/06/03 02:16:33;;;;;;;10.40;4.25;;;13.97;2.93;;;;;;2674947;76;22151;-89
2022/06/03 02:20:10;;;;;;;5.17;3.97;;;13.95;2.94;;;;;;2673802;76;22155;-89
2022/06/03 02:23:57;;;;;;;8.10;4.30;;;13.90;3.06;;;;;;2674672;76;22150;-90
2022/06/03 02:27:34;;;;;;;5.37;3.90;;;13.86;3.03;;;;;;2674406;76;22297;-89
2022/06/03 02:31:05;;;;;;;7.35;4.80;;;13.84;3.20;;;;;;2674083;76;22206;-90
2022/06/03 02:34:33;;;;;;;;;;;13.82;3.44;;;;;;2674505;76;22181;-90
2022/06/03 02:38:20;;;;;;;6.47;3.87;;;13.79;3.71;;;;;;2674194;76;20945;-90
2022/06/03 02:41:57;;;;;;;8.30;4.58;;;13.80;3.78;;;;;;2674368;76;22574;-89
2022/06/03 02:45:39;;;;;;;6.55;4.40;;;13.80;3.61;;;;;;2674558;76;22155;-90
2022/06/03 02:49:13;;;;;;;6.80;4.67;;;13.77;3.56;;;;;;2674526;76;22237;-90
2022/06/03 02:52:41;;;;;;;;;;;13.78;3.79;;;;;;2674511;76;22128;-90
2022/06/03 02:56:20;;;;;;;6.72;4.60;;;13.77;3.95;;;;;;2673941;76;20973;-90
2022/06/03 03:00:08;;;;;;;7.87;4.30;;;13.77;3.96;;;;;;2674719;76;22238;-91
2022/06/03 03:03:55;;;;;;;7.70;4.10;;;13.79;3.86;;;;;;2674201;76;22162;-89
2022/06/03 03:07:42;;;;;;;6.58;4.65;;;13.83;3.83;;;;;;2674162;76;22165;-89
2022/06/03 03:11:13;;;;;;;7.08;4.33;;;13.81;3.91;;;;;;2674418;76;22158;-90
2022/06/03 03:14:41;;;;;;;;;;;13.84;3.93;;;;;;2674338;76;22646;-90
2022/06/03 03:18:23;;;;;;;8.78;4.42;;;13.91;4.05;;;;;;2674248;76;21503;-90
2022/06/03 03:21:54;;;;;;;7.90;3.77;;;13.95;4.01;;;;;;2674106;76;22136;-90
2022/06/03 03:25:22;;;;;;;;;;;13.95;3.86;;;;;;2674667;76;22166;-90
2022/06/03 03:28:53;;;;;;;9.28;5.33;;;14.03;3.89;;;;;;2674109;76;20971;-89
2022/06/03 03:32:21;;;;;;;;;;;14.17;3.83;;;;;;2674155;76;22214;-90
2022/06/03 03:36:10;;;;;;;9.40;3.55;;;14.36;3.80;;;;;;2674151;76;20958;-90
2022/06/03 03:39:56;;;;;;;6.20;3.67;;;14.51;3.41;;;;;;2673796;76;22637;-89
2022/06/03 03:43:43;;;;;;;5.55;4.03;;;14.57;3.03;;;;;;2673834;76;22223;-90
2022/06/03 03:47:20;;;;;;;7.10;3.90;;;14.62;3.03;;;;;;2674299;76;22405;-89
2022/06/03 03:50:51;;;;;;;11.95;4.60;;;14.65;3.16;;;;;;2674294;76;22238;-90
2022/06/03 03:54:19;;;;;;;;;;;15.78;1.74;;;;;;2674468;76;22676;-89
2022/06/03 03:58:06;;;;;;;8.23;4.00;;;15.53;0.88;;;;;;2673717;76;21405;-89
2022/06/03 04:01:46;;;;;;;15.43;5.25;;;15.61;1.87;;;;;;2673528;76;22135;-90
2022/06/03 04:05:31;;;;;;;6.03;4.13;;;15.76;1.77;;;;;;2674956;76;22152;-90
2022/06/03 04:09:08;;;;;;;8.93;3.85;;;15.85;1.57;;;;;;2674531;76;22149;-88
2022/06/03 04:12:55;;;;;;;9.25;3.70;;;15.96;1.12;;;;;;2674255;76;22171;-88
2022/06/03 04:16:42;;;;;;;8.73;4.05;;;15.93;0.79;;;;;;2674323;76;22155;-89
2022/06/03 04:20:25;;;;;;;8.85;3.77;;;16.52;0.26;;;;;;2673995;76;22174;-90
2022/06/03 04:23:55;;;;;;;6.30;3.52;;;17.81;-3.98;;;;;;2674423;76;22223;-90
2022/06/03 04:27:24;;;;;;;;;;;17.89;-4.57;;;;;;2674460;76;22701;-89
2022/06/03 04:30:57;;;;;;;6.28;3.27;;;16.85;-2.59;;;;;;2673610;76;21423;-89
2022/06/03 04:34:25;;;;;;;;;;;16.58;-1.68;;;;;;2674381;76;22186;-89
2022/06/03 04:38:02;;;;;;;6.85;4.22;;;16.63;-1.68;;;;;;2674380;76;20971;-90
2022/06/03 04:41:41;;;;;;;5.30;3.40;;;16.90;-1.92;;;;;;2674327;76;22214;-88
2022/06/03 04:45:28;;;;;;;4.63;3.40;;;17.13;-2.25;;;;;;2674257;76;22174;-91
2022/06/03 04:49:05;;;;;;;7.72;3.42;;;17.28;-2.69;;;;;;2674085;76;22446;-88
2022/06/03 04:52:45;;;;;;;7.50;3.75;;;17.31;-3.57;;;;;;2673835;76;22161;-89
2022/06/03 04:56:21;;;;;;;10.60;3.25;;;17.39;-3.97;;;;;;2673978;76;22124;-90
2022/06/03 05:00:10;;;;;;;4.55;2.80;;;17.60;-4.30;;;;;;2673747;76;22235;-90
2022/06/03 05:03:57;;;;;;;5.95;3.12;;;18.10;-5.13;;;;;;2673135;76;22163;-91
2022/06/03 05:07:46;;;;;;;9.38;3.87;;;18.41;-5.82;;;;;;2672547;76;22609;-90
2022/06/03 05:11:17;;;;;;;9.60;3.90;;;18.39;-5.99;;;;;;2674014;76;22163;-91
2022/06/03 05:14:45;;;;;;;;;;;18.07;-5.44;;;;;;2673336;76;22647;-91
2022/06/03 05:18:15;;;;;;;10.48;4.12;;;17.84;-4.75;;;;;;2673197;76;21410;-90
2022/06/03 05:21:44;;;;;;;;;;;17.66;-4.26;;;;;;2673502;76;22170;-89
2022/06/03 05:25:30;;;;;;;7.85;4.30;;;17.63;-3.63;;;;;;2673594;76;20948;-90
2022/06/03 05:29:17;;;;;;;7.78;4.33;;;17.56;-3.12;;;;;;2673770;76;22146;-89
2022/06/03 05:32:51;;;;;;;7.90;3.77;;;17.64;-2.81;;;;;;2673781;76;22628;-89
2022/06/03 05:36:20;;;;;;;;;;;17.68;-2.19;;;;;;2673770;76;22181;-88
2022/06/03 05:39:50;;;;;;;9.03;3.85;;;17.76;-1.82;;;;;;2673582;76;20958;-89
2022/06/03 05:43:18;;;;;;;;;;;17.88;-1.80;;;;;;2674553;76;22127;-88
2022/06/03 05:46:51;;;;;;;8.25;4.08;;;17.96;-1.43;;;;;;2673990;76;20941;-89
2022/06/03 05:50:20;;;;;;;;;;;18.12;-1.39;;;;;;2673991;76;22233;-88
2022/06/03 05:53:56;;;;;;;6.65;4.20;;;18.22;-0.85;;;;;;2674156;76;20972;-88
2022/06/03 05:57:36;;;;;;;8.90;4.10;;;18.40;-0.31;;;;;;2672732;76;22614;-88
2022/06/03 06:01:12;;;;;;;8.30;4.00;;;18.55;0.00;;;;;;2673677;76;22185;-87
2022/06/03 06:04:52;;;;;;;8.05;3.85;;;18.72;-0.06;;;;;;2674539;76;22177;-88
2022/06/03 06:08:22;;;;;;;7.20;3.55;;;19.01;0.01;;;;;;2673017;76;22198;-86
2022/06/03 06:11:50;;;;;;;;;;;19.32;-0.07;;;;;;2674106;76;22746;-88
2022/06/03 06:15:27;;;;;;;10.18;3.65;;;20.05;-0.87;;;;;;2673678;76;21454;-86
2022/06/03 06:18:58;;;;;;;6.85;3.45;;;20.92;-2.41;;;;;;2674328;76;22150;-88
2022/06/03 06:22:26;;;;;;;;;;;21.61;-3.45;;;;;;2674176;76;22161;-87
2022/06/03 06:25:59;;;;;;;7.05;2.92;;;22.23;-4.83;;;;;;2673545;76;20925;-87
2022/06/03 06:29:28;;;;;;;;;;;22.71;-5.48;;;;;;2673440;76;22214;-88
2022/06/03 06:33:01;;;;;;;6.30;2.77;;;22.94;118.52;;;;;;2673511;76;20972;-87
2022/06/03 06:36:29;;;;;;;;;;;22.84;118.37;;;;;;2673949;76;22582;-87
2022/06/03 06:40:02;;;;;;;4.65;2.67;;;22.68;118.41;;;;;;2673875;76;20989;-87
2022/06/03 06:43:30;;;;;;;;;;;22.57;118.40;;;;;;2673784;76;22218;-88
2022/06/03 06:47:16;;;;;;;6.72;2.10;;;22.91;118.26;;;;;;2672861;76;20966;-88
2022/06/03 06:50:47;;;;;;;3.87;2.50;;;23.20;118.18;;;;;;2673523;76;22153;-88
2022/06/03 06:54:15;;;;;;;;;;;23.52;117.43;;;;;;2673929;76;22195;-87
2022/06/03 06:57:46;;;;;;;4.60;2.25;;;23.72;116.73;;;;;;2673745;76;20949;-88
2022/06/03 07:01:15;;;;;;;;;;;23.79;116.22;;;;;;2674045;76;22754;-88
2022/06/03 07:04:45;;;;;;;5.85;2.75;;;23.84;116.07;;;;;;2673238;76;21415;-88
2022/06/03 07:08:13;;;;;;;;;;;23.71;115.89;;;;;;2673665;76;22222;-88
2022/06/03 07:11:47;;;;;;;6.00;2.70;;;23.82;115.86;;;;;;2672187;76;20977;-87
2022/06/03 07:15:15;;;;;;;;;;;23.88;115.68;;;;;;2673338;76;22162;-87
2022/06/03 07:22:46;;;;;;;5.40;3.02;;;23.47;116.18;;;;;;2673901;76;22182;-87
2022/06/03 07:26:25;;;;;;;3.87;3.03;;;23.16;116.84;;;;;;2673848;76;22694;-87
2022/06/03 07:30:02;;;;;;;2.73;2.47;;;22.72;118.02;;;;;;2673760;76;22628;-87
2022/06/03 07:33:33;;;;;;;6.85;2.45;;;22.35;118.37;;;;;;2673993;76;22202;-87
2022/06/03 07:37:01;;;;;;;;;;;22.22;-5.78;;;;;;2674155;76;22142;-88
2022/06/03 07:40:31;;;;;;;4.03;2.80;;;22.03;-4.99;;;;;;2674256;76;20955;-87
2022/06/03 07:43:59;;;;;;;;;;;21.99;-4.81;;;;;;2674041;76;22201;-88
2022/06/03 07:47:29;;;;;;;7.00;2.80;;;21.94;-4.45;;;;;;2673882;76;20955;-87
2022/06/03 07:50:57;;;;;;;;;;;21.88;-4.37;;;;;;2673658;76;22182;-88
2022/06/03 07:54:27;;;;;;;6.10;2.90;;;21.81;-4.18;;;;;;2673981;76;20971;-88
2022/06/03 07:57:57;;;;;;;;;;;21.88;-4.12;;;;;;2674414;76;22253;-88
2022/06/03 08:01:27;;;;;;;5.35;3.08;;;21.90;-3.99;;;;;;2673379;76;21386;-88
2022/06/03 08:04:56;;;;;;;;;;;21.91;-3.83;;;;;;2674691;76;22177;-88
2022/06/03 08:12:13;;;;;;;13.03;2.60;;;22.16;-3.48;;;;;;2674036;76;22218;-88
2022/06/03 08:15:42;;;;;;;;;;;22.28;-3.65;;;;;;2674566;76;22131;-89
2022/06/03 08:19:21;;;;;;;3.83;2.90;;;22.37;-3.95;;;;;;2674223;76;20950;-88
2022/06/03 08:22:50;;;;;;;3.90;2.60;;;22.44;-4.24;;;;;;2674766;76;22165;-87
2022/06/03 08:26:18;;;;;;;;;;;22.44;-4.35;;;;;;2674108;76;22218;-88
2022/06/03 08:29:49;;;;;;;3.12;2.65;;;22.52;-4.28;;;;;;2673952;76;20965;-87
2022/06/03 08:33:18;;;;;;;;;;;22.61;-4.34;;;;;;2674213;76;22210;-89
2022/06/03 08:36:47;;;;;;;7.45;2.87;;;22.71;-4.41;;;;;;2674059;76;20954;-88
2022/06/03 08:40:15;;;;;;;;;;;22.81;-4.93;;;;;;2674101;76;22592;-88
2022/06/03 08:44:02;;;;;;;3.90;2.77;;;22.92;-5.18;;;;;;2674100;76;20998;-88
2022/06/03 08:47:32;;;;;;;4.12;2.72;;;23.02;-5.26;;;;;;2674133;76;22643;-88
2022/06/03 08:51:00;;;;;;;;;;;23.00;-5.47;;;;;;2673787;76;22174;-88
2022/06/03 08:54:31;;;;;;;3.02;2.08;;;23.10;118.60;;;;;;2673779;76;20983;-88
2022/06/03 08:57:59;;;;;;;;;;;23.23;118.40;;;;;;2674105;76;22176;-87
2022/06/03 09:01:39;;;;;;;3.85;2.37;;;23.34;117.92;;;;;;2673516;76;20983;-87
2022/06/03 09:05:12;;;;;;;2.27;2.07;;;23.43;118.03;;;;;;2673842;76;22198;-88
2022/06/03 09:08:41;;;;;;;;;;;23.55;118.24;;;;;;2674702;76;22167;-87
2022/06/03 09:12:11;;;;;;;3.72;1.77;;;23.66;117.70;;;;;;2673543;76;21005;-87
2022/06/03 09:15:39;;;;;;;;;;;23.82;116.69;;;;;;2673436;76;22556;-87
2022/06/03 09:19:27;;;;;;;2.27;1.65;;;23.92;116.97;;;;;;2673242;76;21397;-87
2022/06/03 09:22:58;;;;;;;4.33;2.50;;;23.97;116.77;;;;;;2673989;76;22235;-87
2022/06/03 09:26:26;;;;;;;;;;;23.98;116.76;;;;;;2674494;76;22169;-87
2022/06/03 09:29:57;;;;;;;3.05;2.02;;;23.98;116.81;;;;;;2673487;76;20971;-88
2022/06/03 09:33:25;;;;;;;;;;;23.98;116.41;;;;;;2674236;76;22200;-88
2022/06/03 09:36:54;;;;;;;10.43;2.60;;;24.01;116.96;;;;;;2673674;76;20965;-88
2022/06/03 09:40:23;;;;;;;;;;;24.08;116.89;;;;;;2674361;76;22155;-87
2022/06/03 09:43:57;;;;;;;2.83;2.10;;;24.15;116.92;;;;;;2672738;76;21037;-85
2022/06/03 09:47:22;;;;;;;;;;;24.32;117.08;;;;;;2673663;76;22752;-84
2022/06/03 09:50:52;;;;;;;5.25;2.00;;;24.53;116.51;;;;;;2673300;76;21473;-85
2022/06/03 09:54:20;;;;;;;;;;;24.66;116.60;;;;;;2674136;76;22157;-85
2022/06/03 09:57:49;;;;;;;3.83;2.45;;;24.73;116.73;;;;;;2673109;76;21398;-83
2022/06/03 10:01:17;;;;;;;;;;;24.74;116.62;;;;;;2674325;76;22150;-84
2022/06/03 10:04:46;;;;;;;4.00;1.82;;;24.91;116.01;;;;;;2672971;76;21028;-84
2022/06/03 10:08:14;;;;;;;;;;;25.05;115.15;;;;;;2673874;76;22182;-84
2022/06/03 10:15:44;;;;;;;3.72;2.65;;;25.08;114.81;;;;;;2673516;76;22190;-85
2022/06/03 10:19:13;;;;;;;3.25;2.37;;;25.15;114.78;;;;;;2673209;76;22157;-85
2022/06/03 10:22:41;;;;;;;;;;;25.24;114.76;;;;;;2673530;76;22161;-85
2022/06/03 10:26:12;;;;;;;3.85;2.10;;;25.21;113.77;;;;;;2673308;76;20976;-85
2022/06/03 10:29:40;;;;;;;;;;;25.17;113.15;;;;;;2673864;76;22137;-87
2022/06/03 10:33:16;;;;;;;3.52;1.90;;;25.15;113.17;;;;;;2673657;76;21012;-85
2022/06/03 10:36:48;;;;;;;3.10;1.70;;;25.22;112.17;;;;;;2673481;76;22174;-85
2022/06/03 10:40:16;;;;;;;;;;;25.22;111.24;;;;;;2673917;76;22138;-84
2022/06/03 10:43:45;;;;;;;1.82;1.60;;;25.34;110.70;;;;;;2673557;76;20966;-85
2022/06/03 10:47:14;;;;;;;;;;;25.44;111.01;;;;;;2673655;76;22221;-85
2022/06/03 10:50:42;;;;;;;2.55;1.50;;;25.60;111.02;;;;;;2673712;76;21075;-85
2022/06/03 11:01:47;;;;;;;1.67;1.57;;;25.88;109.48;;;;;;2673582;76;22165;-85
2022/06/03 11:05:16;;;;;;;;;;;25.95;109.46;;;;;;2673682;76;22221;-85
2022/06/03 11:08:49;;;;;;;5.83;1.75;;;26.12;109.72;;;;;;2672501;76;20946;-85
2022/06/03 11:12:17;;;;;;;;;;;26.40;109.57;;;;;;2673684;76;22259;-85
2022/06/03 11:15:48;;;;;;;5.03;1.80;;;26.63;109.42;;;;;;2673225;76;20968;-85
2022/06/03 11:19:16;;;;;;;;;;;27.15;108.54;;;;;;2673578;76;22659;-85
2022/06/03 11:22:45;;;;;;;4.22;1.90;;;27.42;107.95;;;;;;2673581;76;20931;-85
2022/06/03 11:26:13;;;;;;;;;;;27.45;107.50;;;;;;2674017;76;22186;-85
2022/06/03 11:29:44;;;;;;;2.20;1.50;;;27.41;107.29;;;;;;2673030;76;20984;-85
2022/06/03 11:33:12;;;;;;;;;;;27.35;107.46;;;;;;2673863;76;22224;-85
2022/06/03 11:36:54;;;;;;;4.08;1.87;;;27.34;107.36;;;;;;2673340;76;21441;-85
2022/06/03 11:40:25;;;;;;;2.55;1.70;;;27.21;106.75;;;;;;2673566;76;22160;-85
2022/06/03 11:43:53;;;;;;;;;;;27.21;106.49;;;;;;2673393;76;22131;-85
2022/06/03 11:47:23;;;;;;;2.30;1.55;;;27.27;106.21;;;;;;2673385;76;20954;-85
2022/06/03 11:50:52;;;;;;;;;;;27.55;105.47;;;;;;2674235;76;22160;-85
2022/06/03 11:54:22;;;;;;;2.08;1.60;;;27.97;104.36;;;;;;2672381;76;20967;-85
2022/06/03 11:57:50;;;;;;;;;;;28.40;102.57;;;;;;2673194;76;22167;-85
2022/06/03 12:01:21;;;;;;;2.55;1.37;;;29.15;99.93;;;;;;2673075;76;21392;-85
2022/06/03 12:04:49;;;;;;;;;;;29.90;98.49;;;;;;2671710;76;22209;-86
2022/06/03 12:08:23;;;;;;;5.10;1.62;;;30.74;97.39;;;;;;2673173;76;21013;-85
2022/06/03 12:15:39;;;;;;;2.87;1.70;;;31.88;93.93;;;;;;2673089;76;20440;-86
2022/06/03 12:19:08;;;;;;;;;;;32.53;92.54;;;;;;2673473;76;22705;-86
2022/06/03 12:22:39;;;;;;;1.92;1.40;;;33.00;91.02;;;;;;2673183;76;20969;-85
2022/06/03 12:26:07;;;;;;;;;;;32.88;90.07;;;;;;2674022;76;22181;-85
2022/06/03 12:29:38;;;;;;;4.42;1.47;;;32.75;90.09;;;;;;2672970;76;20951;-85
2022/06/03 12:33:06;;;;;;;;;;;32.75;90.14;;;;;;2672246;76;22521;-86
2022/06/03 12:36:37;;;;;;;2.37;1.20;;;32.86;90.16;;;;;;2670518;76;21423;-86
2022/06/03 12:40:05;;;;;;;;;;;32.93;89.12;;;;;;2673027;76;22142;-86
2022/06/03 12:43:48;;;;;;;2.92;1.40;;;33.04;88.87;;;;;;2672200;76;21000;-86
2022/06/03 12:47:21;;;;;;;2.12;1.17;;;33.08;88.91;;;;;;2669761;76;22189;-85
2022/06/03 12:50:49;;;;;;;;;;;33.27;88.44;;;;;;2673248;76;22173;-86
2022/06/03 12:54:19;;;;;;;2.22;1.25;;;33.34;87.44;;;;;;2671498;76;21134;-86
2022/06/03 12:57:47;;;;;;;;;;;33.33;86.80;;;;;;2671725;76;22256;-86
2022/06/03 13:01:34;;;;;;;4.90;1.45;;;33.25;86.90;;;;;;2672064;76;21009;-86
2022/06/03 13:05:05;;;;;;;1.57;1.15;;;33.21;87.52;;;;;;2672129;76;22661;-87
2022/06/03 13:08:33;;;;;;;;;;;33.16;87.41;;;;;;2672336;76;22162;-87
2022/06/03 13:12:03;;;;;;;2.85;1.60;;;33.12;87.70;;;;;;2671833;76;20994;-87
2022/06/03 13:15:31;;;;;;;;;;;33.16;87.45;;;;;;2673943;76;22189;-88
2022/06/03 13:19:02;;;;;;;4.30;1.20;;;33.19;87.09;;;;;;2671893;76;20944;-87
2022/06/03 13:22:30;;;;;;;;;;;32.98;87.51;;;;;;2672521;76;22183;-86
2022/06/03 13:26:17;;;;;;;9.25;1.40;;;32.71;88.21;;;;;;2673165;76;21001;-87
2022/06/03 13:29:47;;;;;;;3.10;1.40;;;32.55;89.28;;;;;;2672800;76;22157;-88
2022/06/03 13:33:21;;;;;;;;;;;32.32;89.15;;;;;;2671400;76;22562;-89
2022/06/03 13:36:48;;;;;;;2.15;1.60;;;32.16;89.34;;;;;;2671268;76;22690;-88
2022/06/03 13:40:16;;;;;;;;;;;31.97;90.12;;;;;;2673635;76;22186;-89
2022/06/03 13:43:46;;;;;;;3.70;1.37;;;31.98;90.60;;;;;;2672181;76;20962;-89
2022/06/03 13:47:15;;;;;;;;;;;31.95;90.79;;;;;;2672860;76;22175;-89
2022/06/03 13:50:44;;;;;;;5.30;1.65;;;31.72;91.36;;;;;;2673015;76;20966;-85
2022/06/03 13:54:12;;;;;;;;;;;31.50;91.76;;;;;;2672364;76;22183;-90
2022/06/03 13:57:42;;;;;;;6.95;1.35;;;31.28;92.41;;;;;;2673237;76;20978;-89
2022/06/03 14:01:10;;;;;;;;;;;31.04;92.75;;;;;;2673163;76;22229;-87
2022/06/03 14:04:41;;;;;;;1.32;1.22;;;31.06;93.08;;;;;;2672161;76;21021;-89
2022/06/03 14:08:09;;;;;;;;;;;30.94;93.14;;;;;;2673337;76;22232;-89
2022/06/03 14:11:39;;;;;;;3.08;1.20;;;30.82;93.24;;;;;;2673499;76;21402;-89
2022/06/03 14:15:08;;;;;;;;;;;30.77;93.56;;;;;;2672175;76;22193;-89
2022/06/03 14:18:47;;;;;;;1.50;1.22;;;30.56;93.81;;;;;;2673545;76;20986;-91
2022/06/03 14:22:17;;;;;;;3.90;1.10;;;30.40;94.19;;;;;;2673313;76;22170;-89
2022/06/03 14:25:46;;;;;;;;;;;30.21;94.04;;;;;;2673255;76;22770;-90
2022/06/03 14:29:28;;;;;;;3.42;1.17;;;30.12;94.21;;;;;;2673498;76;20997;-90
2022/06/03 14:32:58;;;;;;;1.47;1.17;;;30.09;94.04;;;;;;2672820;76;22607;-91
2022/06/03 14:36:26;;;;;;;;;;;30.07;94.01;;;;;;2671639;76;22168;-89
2022/06/03 14:39:57;;;;;;;1.32;1.00;;;29.98;94.15;;;;;;2672332;76;20969;-89
2022/06/03 14:43:26;;;;;;;;;;;29.80;94.62;;;;;;2672247;76;22186;-88
2022/06/03 14:46:56;;;;;;;2.05;1.02;;;29.58;95.04;;;;;;2672411;76;20957;-90
2022/06/03 14:50:25;;;;;;;;;;;29.35;94.97;;;;;;2671871;76;22177;-89
2022/06/03 14:53:56;;;;;;;2.95;1.05;;;29.19;95.27;;;;;;2670960;76;20998;-88
2022/06/03 14:57:25;;;;;;;;;;;29.00;95.47;;;;;;2672546;76;22227;-88
2022/06/03 15:00:55;;;;;;;2.02;1.17;;;28.79;95.74;;;;;;2672688;76;20950;-89
2022/06/03 15:04:23;;;;;;;;;;;28.63;96.10;;;;;;2673908;76;22177;-88
2022/06/03 15:07:54;;;;;;;3.27;0.95;;;28.40;96.55;;;;;;2671734;76;20966;-90
2022/06/03 15:11:22;;;;;;;;;;;28.14;97.23;;;;;;2673406;76;22174;-88
2022/06/03 15:14:52;;;;;;;2.60;1.40;;;27.91;98.06;;;;;;2672686;76;21402;-89
2022/06/03 15:18:20;;;;;;;;;;;27.71;98.77;;;;;;2672158;76;22236;-89
2022/06/03 15:21:49;;;;;;;2.65;1.27;;;27.42;99.44;;;;;;2672636;76;20933;-86
2022/06/03 15:25:17;;;;;;;;;;;27.23;99.99;;;;;;2674541;76;22219;-87
2022/06/03 15:28:54;;;;;;;5.83;1.20;;;27.05;100.67;;;;;;2672440;76;21412;-91
2022/06/03 15:32:23;;;;;;;4.50;1.20;;;26.82;101.13;;;;;;2674380;76;22198;-92
2022/06/03 15:35:56;;;;;;;;;;;26.62;101.45;;;;;;2674214;76;22249;-91
2022/06/03 15:39:26;;;;;;;1.75;1.12;;;26.39;101.98;;;;;;2673111;76;20996;-89
2022/06/03 15:42:54;;;;;;;;;;;26.20;102.50;;;;;;2673503;76;22312;-90
2022/06/03 15:51:43;;;;;;;1.62;1.17;;;25.73;103.58;;;;;;2680506;76;22360;-92
2022/06/03 15:55:20;;;;;;;3.25;1.00;;;25.61;103.89;;;;;;2674584;76;22224;-93
2022/06/03 15:59:14;;;;;;;10.28;1.45;;;25.48;104.24;;;;;;2673182;76;22690;-91
2022/06/03 16:02:48;;;;;;;2.12;1.02;;;25.35;104.44;;;;;;2674351;76;22211;-90
2022/06/03 16:06:17;;;;;;;;;;;25.18;105.47;;;;;;2674628;76;22293;-92
2022/06/03 16:14:52;;;;;;;1.20;1.10;;;24.72;109.46;;;;;;2672821;76;22495;-91
2022/06/03 16:18:43;;;;;;;12.58;2.52;;;23.07;-2.67;;;;;;2674523;76;22199;-91
2022/06/03 16:22:16;;;;;;;10.90;2.40;;;21.70;16.50;;;;;;2673866;76;22243;-92
2022/06/03 16:25:45;;;;;;;;;;;20.37;31.09;;;;;;2675216;76;22204;-92
2022/06/03 16:29:30;;;;;;;14.70;3.00;;;18.93;49.69;;;;;;2674692;76;21089;-94
2022/06/03 16:33:00;;;;;;;12.43;3.92;;;18.65;69.88;;;;;;2674222;76;22166;-91
2022/06/03 16:36:29;;;;;;;;;;;18.66;74.28;;;;;;2675419;76;22221;-91
2022/06/03 16:40:05;;;;;;;15.60;2.10;;;18.40;74.37;;;;;;2674797;76;20985;-90
2022/06/03 16:43:44;;;;;;;18.55;3.60;;;18.46;75.81;;;;;;2674731;76;22141;-90
2022/06/03 16:47:21;;;;;;;14.10;3.50;;;18.72;76.56;;;;;;2674017;76;22223;-90
2022/06/03 16:50:50;;;;;;;20.00;3.55;;;18.80;71.38;;;;;;2674789;76;22160;-89
2022/06/03 16:54:18;;;;;;;;;;;18.97;66.25;;;;;;2674557;76;22169;-90
2022/06/03 16:57:48;;;;;;;9.83;4.47;;;19.00;69.16;;;;;;2673960;76;21020;-91
2022/06/03 17:01:17;;;;;;;;;;;18.55;69.08;;;;;;2672585;76;22203;-89
2022/06/03 17:04:45;;;;;;;9.03;2.85;;;18.30;69.00;;;;;;2672370;76;20985;-89
2022/06/03 17:08:13;;;;;;;;;;;18.11;72.38;;;;;;2674248;76;22676;-89
2022/06/03 17:11:43;;;;;;;5.72;2.10;;;18.03;71.07;;;;;;2673596;76;21286;-89
2022/06/03 17:15:11;;;;;;;;;;;18.15;73.25;;;;;;2674341;76;22172;-89
2022/06/03 17:18:40;;;;;;;3.77;1.90;;;18.18;71.78;;;;;;2674464;76;21026;-90
2022/06/03 17:22:08;;;;;;;;;;;18.13;72.70;;;;;;2674868;76;22198;-90
2022/06/03 17:25:40;;;;;;;11.60;2.42;;;18.21;74.00;;;;;;2674083;76;20994;-90
2022/06/03 17:29:08;;;;;;;;;;;18.26;71.82;;;;;;2675012;76;22204;-89
2022/06/03 17:32:39;;;;;;;8.15;2.60;;;18.37;72.29;;;;;;2674382;76;20952;-90
2022/06/03 17:36:07;;;;;;;;;;;18.42;72.41;;;;;;2675064;76;22179;-90
2022/06/03 17:39:40;;;;;;;5.03;3.05;;;18.58;72.90;;;;;;2674134;76;21001;-90
2022/06/03 17:43:09;;;;;;;;;;;18.62;71.08;;;;;;2675115;76;22157;-90
2022/06/03 17:46:43;;;;;;;4.22;2.37;;;18.58;70.55;;;;;;2674278;76;21440;-90
2022/06/03 17:50:11;;;;;;;;;;;18.62;68.44;;;;;;2673574;76;22195;-90
2022/06/03 17:57:35;;;;;;;14.47;2.72;;;18.22;62.89;;;;;;2674472;76;22162;-91
2022/06/03 18:01:07;;;;;;;13.75;3.00;;;17.99;65.01;;;;;;2675627;76;22204;-91
2022/06/03 18:04:38;;;;;;;;;;;17.92;67.48;;;;;;2675598;76;22352;-92
2022/06/03 18:08:06;;;;;;;;;;;17.88;69.51;;;;;;2675237;76;20391;-91
2022/06/03 18:11:43;;;;;;;9.90;2.35;;;17.81;69.26;;;;;;2675247;76;20966;-91
2022/06/03 18:15:14;;;;;;;12.15;3.75;;;17.82;70.24;;;;;;2675346;76;22171;-91
2022/06/03 18:18:42;;;;;;;;;;;17.83;70.29;;;;;;2674570;76;22192;-90
2022/06/03 18:22:21;;;;;;;17.87;4.37;;;17.85;71.35;;;;;;2674133;76;20955;-90
2022/06/03 18:25:53;;;;;;;25.35;4.78;;;17.97;71.10;;;;;;2673978;76;22365;-91
2022/06/03 18:29:21;;;;;;;;;;;18.02;71.35;;;;;;2674934;76;22154;-90
2022/06/03 18:32:52;;;;;;;15.63;5.35;;;17.96;71.38;;;;;;2673795;76;20954;-89
2022/06/03 18:36:20;;;;;;;;;;;17.92;73.02;;;;;;2673857;76;22218;-90
2022/06/03 18:39:59;;;;;;;20.32;5.10;;;17.93;72.91;;;;;;2674318;76;20969;-90
2022/06/03 18:43:33;;;;;;;18.10;5.60;;;17.92;72.02;;;;;;2674249;76;22157;-90
2022/06/03 18:47:01;;;;;;;;;;;17.93;72.61;;;;;;2674794;76;22170;-91
2022/06/03 18:50:44;;;;;;;30.70;6.62;;;17.94;72.75;;;;;;2674207;76;20970;-91
2022/06/03 18:54:14;;;;;;;19.10;6.08;;;17.98;73.05;;;;;;2674613;76;22357;-90
2022/06/03 18:57:43;;;;;;;;;;;18.06;72.06;;;;;;2674866;76;22578;-90
2022/06/03 19:01:16;;;;;;;20.17;6.60;;;18.02;71.29;;;;;;2673778;76;20981;-91
2022/06/03 19:04:45;;;;;;;;;;;18.06;72.14;;;;;;2674465;76;22569;-90
2022/06/03 19:08:15;;;;;;;16.50;6.00;;;18.17;71.76;;;;;;2674323;76;20966;-92
2022/06/03 19:11:43;;;;;;;;;;;18.18;70.97;;;;;;2674860;76;22805;-91
2022/06/03 19:15:23;;;;;;;14.98;5.72;;;18.15;69.66;;;;;;2673924;76;21479;-90
2022/06/03 19:19:05;;;;;;;13.10;6.10;;;18.07;68.83;;;;;;2674015;76;22195;-90
2022/06/03 19:22:52;;;;;;;23.35;6.87;;;18.13;70.73;;;;;;2674093;76;22128;-90
2022/06/03 19:26:22;;;;;;;34.83;7.62;;;18.22;70.26;;;;;;2674499;76;22221;-90
2022/06/03 19:29:50;;;;;;;;;;;18.28;69.17;;;;;;2674710;76;22146;-90
2022/06/03 19:33:21;;;;;;;17.20;7.17;;;18.29;68.46;;;;;;2674745;76;20965;-90
2022/06/03 19:36:49;;;;;;;;;;;18.35;68.06;;;;;;2675241;76;22188;-90
2022/06/03 19:40:29;;;;;;;15.93;7.00;;;18.40;66.78;;;;;;2674600;76;21327;-90
2022/06/03 19:44:16;;;;;;;18.70;6.97;;;18.42;65.08;;;;;;2674917;76;22172;-90